createdAt,value
2018-05-01T00:01:41.467Z,56.18
2018-05-01T00:04:07.909Z,56.22
2018-05-01T00:06:34.384Z,56.51
2018-05-01T00:09:00.791Z,56.68
2018-05-01T00:11:27.336Z,56.81
2018-05-01T00:13:53.888Z,56.79
2018-05-01T00:16:20.433Z,56.60
2018-05-01T00:18:46.957Z,56.90
2018-05-01T00:21:13.364Z,57.00
2018-05-01T00:23:39.836Z,57.11
2018-05-01T00:26:06.328Z,57.16
2018-05-01T00:28:32.805Z,57.21
2018-05-01T00:30:59.361Z,56.99
2018-05-01T00:33:25.824Z,56.85
2018-05-01T00:35:52.284Z,56.89
2018-05-01T00:38:18.748Z,56.86
2018-05-01T00:40:45.325Z,56.98
2018-05-01T00:43:11.759Z,57.27
2018-05-01T00:45:38.268Z,57.47
2018-05-01T00:48:04.721Z,57.38
2018-05-01T00:50:31.223Z,57.40
2018-05-01T00:52:57.761Z,57.36
2018-05-01T00:55:24.203Z,57.30
2018-05-01T00:57:50.612Z,57.53
2018-05-01T01:00:17.263Z,57.67
2018-05-01T01:02:43.711Z,57.82
2018-05-01T01:05:10.265Z,57.80
2018-05-01T01:07:36.745Z,57.58
2018-05-01T01:10:03.178Z,57.43
2018-05-01T01:12:29.671Z,57.23
2018-05-01T01:14:56.167Z,57.08
2018-05-01T01:17:22.618Z,57.00
2018-05-01T01:19:49.246Z,56.75
2018-05-01T01:22:15.735Z,56.54
2018-05-01T01:24:42.304Z,56.35
2018-05-01T01:27:08.756Z,56.38
2018-05-01T01:29:35.205Z,56.50
2018-05-01T01:32:16.556Z,56.61
2018-05-01T01:34:43.059Z,56.88
2018-05-01T01:37:09.404Z,57.07
2018-05-01T01:39:35.679Z,57.21
2018-05-01T01:42:01.969Z,57.38
2018-05-01T01:44:28.209Z,57.36
2018-05-01T01:46:54.392Z,57.57
2018-05-01T01:49:20.592Z,57.49
2018-05-01T01:51:46.768Z,57.35
2018-05-01T01:54:12.991Z,57.18
2018-05-01T01:56:39.189Z,57.01
2018-05-01T01:59:05.410Z,56.95
2018-05-01T02:01:31.648Z,56.81
2018-05-01T02:03:58.037Z,56.75
2018-05-01T02:06:24.268Z,56.35
2018-05-01T02:08:50.528Z,56.40
2018-05-01T02:11:16.749Z,56.54
2018-05-01T02:13:43.032Z,56.51
2018-05-01T02:16:09.207Z,56.54
2018-05-01T02:18:35.461Z,56.37
2018-05-01T02:21:01.769Z,56.26
2018-05-01T02:23:27.964Z,56.05
2018-05-01T02:25:54.287Z,55.96
2018-05-01T02:28:20.399Z,55.98
2018-05-01T02:30:46.764Z,56.20
2018-05-01T02:33:12.959Z,56.09
2018-05-01T02:35:39.163Z,56.25
2018-05-01T02:38:05.464Z,56.30
2018-05-01T02:40:31.733Z,56.30
2018-05-01T02:42:58.026Z,56.53
2018-05-01T02:45:24.260Z,56.61
2018-05-01T02:47:50.540Z,56.70
2018-05-01T02:50:16.870Z,56.59
2018-05-01T02:52:43.088Z,56.88
2018-05-01T02:55:09.395Z,56.83
2018-05-01T02:57:35.661Z,56.88
2018-05-01T03:00:02.273Z,57.17
2018-05-01T03:02:28.688Z,57.53
2018-05-01T03:04:54.863Z,57.93
2018-05-01T03:07:21.139Z,58.01
2018-05-01T03:09:47.454Z,58.02
2018-05-01T03:12:13.540Z,57.92
2018-05-01T03:14:39.730Z,58.04
2018-05-01T03:17:05.864Z,58.31
2018-05-01T03:19:32.043Z,58.54
2018-05-01T03:21:58.219Z,58.64
2018-05-01T03:24:24.427Z,58.72
2018-05-01T03:26:50.768Z,58.88
2018-05-01T03:29:16.975Z,58.77
2018-05-01T03:31:43.256Z,58.82
2018-05-01T03:34:09.480Z,59.02
2018-05-01T03:36:35.611Z,59.02
2018-05-01T03:39:01.835Z,58.50
2018-05-01T03:41:28.063Z,58.18
2018-05-01T03:43:54.281Z,58.04
2018-05-01T03:46:20.428Z,57.70
2018-05-01T03:48:46.608Z,57.36
2018-05-01T03:51:12.826Z,57.35
2018-05-01T03:53:39.016Z,57.45
2018-05-01T03:56:05.272Z,57.48
2018-05-01T03:58:31.432Z,57.38
2018-05-01T04:00:57.537Z,57.30
2018-05-01T04:03:23.693Z,57.22
2018-05-01T04:05:49.933Z,57.24
2018-05-01T04:08:16.156Z,56.97
2018-05-01T04:10:42.324Z,56.92
2018-05-01T04:13:08.601Z,56.56
2018-05-01T04:15:34.916Z,56.51
2018-05-01T04:18:01.091Z,56.27
2018-05-01T04:20:27.296Z,56.29
2018-05-01T04:22:53.461Z,56.38
2018-05-01T04:25:19.613Z,56.50
2018-05-01T04:27:45.908Z,56.44
2018-05-01T04:30:12.093Z,56.37
2018-05-01T04:32:38.296Z,56.62
2018-05-01T04:35:04.480Z,56.49
2018-05-01T04:37:30.768Z,56.47
2018-05-01T04:39:57.065Z,56.62
2018-05-01T04:42:23.212Z,57.53
2018-05-01T04:44:49.413Z,57.60
2018-05-01T04:47:15.548Z,57.69
2018-05-01T04:49:41.789Z,57.78
2018-05-01T04:52:08.001Z,57.44
2018-05-01T04:54:34.171Z,57.02
2018-05-01T04:57:00.373Z,56.71
2018-05-01T04:59:26.619Z,56.83
2018-05-01T05:01:52.809Z,56.80
2018-05-01T05:04:19.213Z,56.47
2018-05-01T05:06:45.519Z,56.33
2018-05-01T05:09:11.793Z,56.73
2018-05-01T05:11:38.004Z,56.90
2018-05-01T05:14:04.153Z,57.07
2018-05-01T05:16:30.372Z,57.29
2018-05-01T05:18:56.556Z,57.05
2018-05-01T05:21:22.875Z,57.04
2018-05-01T05:23:49.064Z,56.96
2018-05-01T05:26:15.472Z,57.00
2018-05-01T05:28:41.730Z,56.83
2018-05-01T05:31:07.956Z,56.29
2018-05-01T05:33:34.161Z,55.99
2018-05-01T05:36:00.361Z,55.75
2018-05-01T05:38:26.475Z,55.55
2018-05-01T05:40:52.780Z,55.31
2018-05-01T05:43:19.083Z,55.28
2018-05-01T05:45:45.266Z,55.15
2018-05-01T05:48:11.520Z,54.90
2018-05-01T05:50:37.780Z,54.86
2018-05-01T05:53:04.189Z,54.40
2018-05-01T05:55:30.460Z,54.22
2018-05-01T05:57:56.744Z,54.26
2018-05-01T06:00:22.978Z,53.93
2018-05-01T06:02:49.280Z,53.77
2018-05-01T06:05:15.661Z,53.44
2018-05-01T06:07:41.917Z,53.43
2018-05-01T06:10:08.034Z,53.39
2018-05-01T06:12:34.538Z,53.49
2018-05-01T06:15:00.892Z,52.87
2018-05-01T06:17:27.257Z,52.62
2018-05-01T06:19:53.488Z,52.63
2018-05-01T06:22:19.742Z,52.29
2018-05-01T06:24:45.992Z,52.20
2018-05-01T06:27:12.341Z,52.04
2018-05-01T06:29:38.550Z,52.12
2018-05-01T06:32:04.711Z,51.81
2018-05-01T06:34:30.892Z,51.76
2018-05-01T06:36:57.278Z,51.97
2018-05-01T06:39:23.470Z,51.84
2018-05-01T06:41:49.722Z,51.29
2018-05-01T06:44:15.947Z,50.92
2018-05-01T06:46:42.317Z,50.66
2018-05-01T06:49:08.524Z,50.81
2018-05-01T06:51:34.765Z,50.71
2018-05-01T06:54:00.988Z,50.85
2018-05-01T06:56:27.225Z,50.41
2018-05-01T06:58:53.399Z,50.44
2018-05-01T07:01:19.624Z,50.35
2018-05-01T07:03:45.969Z,50.61
2018-05-01T07:06:12.212Z,50.26
2018-05-01T07:08:38.480Z,49.86
2018-05-01T07:11:04.646Z,50.20
2018-05-01T07:13:30.825Z,49.89
2018-05-01T07:15:56.994Z,49.68
2018-05-01T07:18:23.211Z,49.33
2018-05-01T07:20:49.434Z,48.84
2018-05-01T07:23:15.675Z,48.63
2018-05-01T07:25:41.954Z,48.72
2018-05-01T07:28:08.248Z,48.30
2018-05-01T07:30:34.535Z,47.58
2018-05-01T07:33:00.707Z,47.78
2018-05-01T07:35:26.981Z,47.45
2018-05-01T07:37:53.171Z,46.76
2018-05-01T07:40:19.361Z,47.02
2018-05-01T07:42:45.669Z,46.26
2018-05-01T07:45:11.875Z,46.08
2018-05-01T07:47:38.204Z,46.06
2018-05-01T07:50:04.393Z,46.66
2018-05-01T07:52:30.623Z,45.86
2018-05-01T07:54:56.901Z,45.90
2018-05-01T08:05:27.216Z,44.69
2018-05-01T08:07:53.519Z,44.88
2018-05-01T08:15:06.004Z,44.57
2018-05-01T08:17:32.172Z,45.10
2018-05-01T08:19:58.594Z,44.90
2018-05-01T08:22:24.868Z,44.68
2018-05-01T08:24:51.004Z,44.34
2018-05-01T08:27:17.373Z,44.32
2018-05-01T08:29:43.731Z,44.23
2018-05-01T08:32:10.045Z,44.11
2018-05-01T08:34:36.284Z,44.42
2018-05-01T08:37:02.521Z,43.80
2018-05-01T08:39:28.720Z,44.04
2018-05-01T08:41:54.974Z,43.70
2018-05-01T08:44:21.229Z,43.74
2018-05-01T08:46:47.412Z,42.77
2018-05-01T08:49:13.653Z,41.65
2018-05-01T08:51:39.910Z,40.60
2018-05-01T08:54:06.176Z,41.43
2018-05-01T08:56:32.419Z,40.70
2018-05-01T08:58:58.676Z,40.65
2018-05-01T09:01:24.839Z,41.47
2018-05-01T09:03:51.192Z,41.11
2018-05-01T09:06:17.427Z,41.35
2018-05-01T09:08:43.680Z,41.26
2018-05-01T09:11:09.895Z,40.68
2018-05-01T09:13:36.079Z,40.89
2018-05-01T09:16:02.385Z,40.54
2018-05-01T09:18:28.710Z,40.87
2018-05-01T09:20:54.895Z,41.40
2018-05-01T09:29:03.644Z,40.20
2018-05-01T09:31:29.796Z,40.23
2018-05-01T09:33:56.031Z,40.49
2018-05-01T09:36:22.363Z,40.26
2018-05-01T09:38:48.564Z,40.15
2018-05-01T09:43:47.537Z,39.16
2018-05-01T09:46:13.677Z,38.91
2018-05-01T09:48:39.962Z,39.23
2018-05-01T09:51:06.167Z,39.26
2018-05-01T09:53:32.692Z,39.15
2018-05-01T09:55:59.232Z,38.36
2018-05-01T09:58:25.880Z,38.29
2018-05-01T10:00:52.287Z,38.64
2018-05-01T10:03:18.787Z,37.91
2018-05-01T10:05:45.170Z,37.64
2018-05-01T10:08:11.678Z,37.91
2018-05-01T10:10:38.160Z,38.20
2018-05-01T10:13:04.645Z,38.26
2018-05-01T10:15:31.272Z,37.34
2018-05-01T10:17:57.821Z,36.57
2018-05-01T10:20:24.352Z,36.19
2018-05-01T10:22:50.885Z,37.16
2018-05-01T10:25:17.442Z,37.41
2018-05-01T10:27:44.176Z,37.05
2018-05-01T10:30:10.780Z,36.60
2018-05-01T10:32:37.316Z,36.12
2018-05-01T10:35:03.765Z,34.90
2018-05-01T10:37:30.247Z,35.54
2018-05-01T10:39:56.632Z,36.17
2018-05-01T10:42:23.127Z,34.57
2018-05-01T10:44:49.689Z,35.78
2018-05-01T10:47:16.243Z,34.69
2018-05-01T10:49:42.793Z,34.84
2018-05-01T10:52:09.280Z,34.84
2018-05-01T10:54:35.820Z,33.82
2018-05-01T10:57:02.328Z,34.39
2018-05-01T10:59:28.694Z,34.99
2018-05-01T11:01:55.188Z,34.81
2018-05-01T11:04:21.595Z,35.22
2018-05-01T11:06:47.952Z,34.98
2018-05-01T11:09:14.500Z,35.15
2018-05-01T11:11:40.892Z,34.85
2018-05-01T11:14:07.513Z,34.62
2018-05-01T11:16:34.012Z,35.60
2018-05-01T11:19:00.557Z,35.86
2018-05-01T11:21:27.094Z,35.61
2018-05-01T11:23:53.544Z,35.75
2018-05-01T11:26:20.067Z,35.58
2018-05-01T11:28:46.572Z,36.26
2018-05-01T11:31:13.037Z,36.38
2018-05-01T11:33:39.750Z,36.59
2018-05-01T11:36:06.279Z,36.35
2018-05-01T11:38:32.699Z,36.93
2018-05-01T11:40:59.173Z,37.17
2018-05-01T11:43:25.608Z,36.44
2018-05-01T11:45:52.163Z,36.56
2018-05-01T11:48:18.700Z,36.35
2018-05-01T11:50:45.186Z,36.55
2018-05-01T11:53:11.641Z,36.55
2018-05-01T11:55:38.180Z,36.47
2018-05-01T11:58:04.706Z,36.42
2018-05-01T12:00:31.208Z,36.22
2018-05-01T12:02:57.652Z,36.55
2018-05-01T12:05:24.096Z,36.63
2018-05-01T12:07:50.553Z,36.53
2018-05-01T12:10:17.100Z,36.59
2018-05-01T12:12:43.524Z,38.37
2018-05-01T12:15:10.057Z,39.03
2018-05-01T12:17:36.509Z,39.26
2018-05-01T12:20:03.112Z,38.54
2018-05-01T12:22:29.531Z,38.94
2018-05-01T12:24:56.085Z,38.59
2018-05-01T12:27:22.593Z,37.56
2018-05-01T12:29:49.058Z,37.38
2018-05-01T12:32:15.570Z,37.79
2018-05-01T12:34:42.089Z,37.49
2018-05-01T12:37:08.658Z,37.32
2018-05-01T12:39:35.106Z,37.69
2018-05-01T12:42:01.597Z,36.68
2018-05-01T12:44:28.127Z,37.23
2018-05-01T12:46:54.598Z,37.18
2018-05-01T12:49:21.140Z,37.13
2018-05-01T12:51:47.679Z,36.71
2018-05-01T12:54:14.345Z,37.26
2018-05-01T12:56:40.811Z,37.14
2018-05-01T12:59:07.480Z,37.95
2018-05-01T13:01:33.872Z,37.85
2018-05-01T13:04:00.428Z,36.92
2018-05-01T13:06:26.856Z,35.52
2018-05-01T13:08:53.469Z,36.05
2018-05-01T13:11:20.066Z,36.18
2018-05-01T13:13:46.536Z,36.33
2018-05-01T13:16:13.304Z,34.36
2018-05-01T13:18:39.872Z,34.33
2018-05-01T13:21:06.388Z,35.17
2018-05-01T13:23:32.950Z,35.13
2018-05-01T13:25:59.447Z,35.42
2018-05-01T13:28:26.019Z,35.29
2018-05-01T13:30:52.468Z,34.83
2018-05-01T13:33:18.927Z,35.09
2018-05-01T13:35:45.520Z,35.12
2018-05-01T13:38:12.017Z,34.29
2018-05-01T13:40:38.560Z,33.51
2018-05-01T13:43:05.004Z,33.21
2018-05-01T13:45:31.498Z,33.87
2018-05-01T13:47:58.140Z,33.84
2018-05-01T13:50:24.588Z,33.99
2018-05-01T13:52:51.112Z,34.04
2018-05-01T13:55:17.586Z,33.02
2018-05-01T13:57:44.062Z,32.85
2018-05-01T14:00:10.588Z,33.17
2018-05-01T14:02:37.064Z,33.19
2018-05-01T14:05:03.700Z,33.24
2018-05-01T14:07:30.426Z,32.97
2018-05-01T14:09:56.863Z,32.47
2018-05-01T14:12:23.355Z,32.16
2018-05-01T14:14:49.764Z,31.81
2018-05-01T14:17:16.398Z,32.26
2018-05-01T14:19:42.836Z,32.80
2018-05-01T14:22:09.428Z,32.87
2018-05-01T14:24:38.997Z,32.45
2018-05-01T14:27:05.767Z,32.33
2018-05-01T14:29:32.668Z,32.71
2018-05-01T14:31:59.136Z,32.40
2018-05-01T14:34:25.524Z,32.35
2018-05-01T14:36:51.964Z,31.92
2018-05-01T14:39:18.344Z,31.51
2018-05-01T14:41:44.859Z,31.48
2018-05-01T14:44:11.410Z,30.71
2018-05-01T14:46:37.808Z,30.61
2018-05-01T14:49:04.357Z,31.43
2018-05-01T14:51:30.828Z,31.11
2018-05-01T14:53:57.261Z,31.33
2018-05-01T14:56:23.648Z,37.67
2018-05-01T14:58:50.220Z,39.10
2018-05-01T15:01:16.633Z,40.71
2018-05-01T15:03:43.044Z,41.87
2018-05-01T15:06:09.484Z,43.51
2018-05-01T15:08:35.983Z,44.10
2018-05-01T15:11:02.486Z,44.30
2018-05-01T15:13:28.921Z,43.86
2018-05-01T15:15:55.367Z,43.70
2018-05-01T15:18:21.856Z,43.44
2018-05-01T15:20:48.271Z,43.90
2018-05-01T15:23:14.868Z,43.70
2018-05-01T15:25:41.440Z,43.68
2018-05-01T15:28:07.965Z,44.49
2018-05-01T15:30:34.483Z,44.81
2018-05-01T15:33:01.500Z,44.46
2018-05-01T15:35:35.061Z,44.53
2018-05-01T15:38:01.452Z,44.83
2018-05-01T15:40:27.883Z,45.12
2018-05-01T15:42:54.303Z,44.93
2018-05-01T15:45:20.787Z,44.84
2018-05-01T15:47:47.244Z,44.37
2018-05-01T15:50:13.612Z,43.68
2018-05-01T15:52:40.099Z,43.64
2018-05-01T15:55:06.572Z,43.50
2018-05-01T15:57:33.060Z,44.08
2018-05-01T15:59:59.450Z,44.00
2018-05-01T16:02:25.902Z,43.81
2018-05-01T16:04:52.311Z,44.74
2018-05-01T16:07:18.772Z,44.82
2018-05-01T16:09:45.406Z,45.92
2018-05-01T16:12:11.916Z,46.41
2018-05-01T16:14:38.305Z,46.80
2018-05-01T16:17:04.852Z,46.92
2018-05-01T16:19:31.275Z,47.04
2018-05-01T16:21:57.756Z,47.04
2018-05-01T16:24:24.352Z,47.48
2018-05-01T16:26:50.767Z,47.18
2018-05-01T16:29:17.159Z,47.10
2018-05-01T16:31:43.648Z,47.74
2018-05-01T16:34:10.117Z,47.48
2018-05-01T16:36:36.531Z,47.56
2018-05-01T16:39:03.162Z,47.93
2018-05-01T16:41:29.658Z,48.29
2018-05-01T16:43:56.087Z,47.64
2018-05-01T16:46:22.499Z,49.76
2018-05-01T16:48:48.936Z,50.13
2018-05-01T16:51:15.396Z,48.31
2018-05-01T16:53:41.780Z,48.13
2018-05-01T16:56:08.186Z,48.13
2018-05-01T16:58:34.681Z,47.79
2018-05-01T17:01:01.100Z,48.46
2018-05-01T17:03:27.493Z,49.57
2018-05-01T17:05:53.956Z,50.54
2018-05-01T17:08:20.465Z,49.28
2018-05-01T17:10:46.889Z,49.77
2018-05-01T17:13:13.308Z,50.30
2018-05-01T17:15:40.638Z,50.50
2018-05-01T17:18:07.676Z,51.28
2018-05-01T17:20:34.312Z,50.62
2018-05-01T17:23:00.678Z,50.93
2018-05-01T17:25:27.449Z,50.75
2018-05-01T17:27:53.966Z,51.16
2018-05-01T17:30:20.498Z,50.56
2018-05-01T17:32:47.037Z,50.60
2018-05-01T17:35:15.151Z,51.04
2018-05-01T17:37:41.712Z,50.87
2018-05-01T17:40:08.732Z,50.88
2018-05-01T17:42:35.587Z,51.63
2018-05-01T17:45:02.235Z,51.63
2018-05-01T17:47:28.656Z,50.19
2018-05-01T17:49:55.702Z,49.68
2018-05-01T17:52:22.642Z,49.30
2018-05-01T17:54:49.510Z,49.78
2018-05-01T17:57:16.129Z,49.38
2018-05-01T17:59:43.065Z,49.58
2018-05-01T18:02:09.710Z,50.11
2018-05-01T18:04:36.076Z,49.71
2018-05-01T18:07:02.482Z,49.84
2018-05-01T18:09:28.987Z,49.40
2018-05-01T18:11:55.441Z,49.65
2018-05-01T18:14:21.929Z,49.32
2018-05-01T18:16:48.455Z,49.58
2018-05-01T18:19:14.829Z,48.73
2018-05-01T18:21:41.369Z,48.80
2018-05-01T18:24:07.792Z,48.95
2018-05-01T18:26:34.196Z,48.97
2018-05-01T18:29:00.641Z,49.49
2018-05-01T18:31:27.083Z,49.80
2018-05-01T18:33:53.465Z,52.07
2018-05-01T18:36:19.954Z,54.30
2018-05-01T18:38:46.283Z,48.52
2018-05-01T18:41:12.728Z,48.13
2018-05-01T18:43:39.142Z,51.32
2018-05-01T18:46:05.703Z,55.40
2018-05-01T18:48:32.320Z,50.86
2018-05-01T18:50:58.725Z,48.02
2018-05-01T18:53:25.332Z,48.05
2018-05-01T18:55:51.811Z,47.94
2018-05-01T18:58:18.308Z,49.16
2018-05-01T19:00:44.711Z,50.12
2018-05-01T19:03:11.054Z,51.55
2018-05-01T19:05:37.931Z,49.29
2018-05-01T19:08:04.346Z,47.09
2018-05-01T19:10:30.769Z,48.38
2018-05-01T19:12:57.123Z,49.70
2018-05-01T19:15:23.532Z,46.90
2018-05-01T19:17:49.952Z,49.13
2018-05-01T19:20:16.359Z,46.69
2018-05-01T19:22:42.748Z,49.45
2018-05-01T19:25:09.152Z,47.19
2018-05-01T19:27:35.574Z,47.23
2018-05-01T19:30:01.944Z,46.80
2018-05-01T19:32:28.385Z,48.76
2018-05-01T19:34:54.775Z,50.48
2018-05-01T19:37:21.229Z,46.88
2018-05-01T19:39:47.677Z,47.06
2018-05-01T19:42:14.232Z,47.22
2018-05-01T19:44:40.718Z,49.20
2018-05-01T19:47:07.133Z,51.22
2018-05-01T19:49:33.661Z,46.74
2018-05-01T19:52:00.061Z,46.80
2018-05-01T19:54:26.508Z,49.41
2018-05-01T19:56:52.988Z,49.07
2018-05-01T19:59:19.470Z,48.40
2018-05-01T20:01:45.927Z,46.45
2018-05-01T20:04:12.427Z,44.92
2018-05-01T20:06:38.858Z,45.55
2018-05-01T20:09:05.335Z,44.99
2018-05-01T20:11:31.761Z,46.71
2018-05-01T20:13:58.132Z,45.47
2018-05-01T20:16:24.600Z,46.19
2018-05-01T20:18:51.064Z,46.30
2018-05-01T20:21:17.555Z,46.38
2018-05-01T20:23:44.033Z,46.86
2018-05-01T20:26:10.465Z,47.43
2018-05-01T20:28:36.869Z,46.45
2018-05-01T20:31:03.278Z,46.25
2018-05-01T20:33:29.742Z,45.48
2018-05-01T20:35:56.204Z,45.76
2018-05-01T20:38:22.573Z,46.38
2018-05-01T20:40:49.047Z,46.51
2018-05-01T20:43:15.497Z,47.13
2018-05-01T20:45:41.965Z,47.39
2018-05-01T20:48:08.482Z,47.65
2018-05-01T20:50:34.831Z,47.62
2018-05-01T20:53:01.208Z,47.91
2018-05-01T20:55:27.615Z,48.12
2018-05-01T20:57:54.161Z,48.03
2018-05-01T21:00:20.673Z,47.95
2018-05-01T21:02:47.110Z,48.75
2018-05-01T21:05:13.504Z,48.49
2018-05-01T21:07:39.901Z,48.82
2018-05-01T21:10:06.421Z,48.96
2018-05-01T21:12:32.871Z,48.67
2018-05-01T21:14:59.376Z,48.66
2018-05-01T21:17:25.808Z,48.27
2018-05-01T21:19:52.183Z,48.02
2018-05-01T21:22:18.632Z,48.45
2018-05-01T21:24:45.116Z,48.26
2018-05-01T21:27:11.542Z,48.00
2018-05-01T21:29:38.025Z,48.09
2018-05-01T21:32:04.475Z,47.84
2018-05-01T21:34:31.038Z,47.78
2018-05-01T21:36:57.474Z,48.08
2018-05-01T21:39:24.380Z,48.29
2018-05-01T21:41:50.814Z,48.22
2018-05-01T21:44:17.181Z,48.09
2018-05-01T21:46:43.616Z,47.84
2018-05-01T21:49:10.100Z,48.08
2018-05-01T21:51:36.492Z,48.24
2018-05-01T21:54:03.083Z,47.78
2018-05-01T21:56:29.604Z,47.62
2018-05-01T21:58:56.101Z,47.56
2018-05-01T22:01:22.487Z,47.66
2018-05-01T22:03:48.956Z,47.53
2018-05-01T22:06:15.439Z,47.16
2018-05-01T22:08:41.807Z,47.13
2018-05-01T22:11:08.275Z,47.14
2018-05-01T22:13:34.731Z,47.08
2018-05-01T22:16:01.130Z,47.34
2018-05-01T22:18:27.615Z,47.44
2018-05-01T22:20:54.021Z,46.64
2018-05-01T22:23:20.472Z,46.64
2018-05-01T22:25:46.941Z,46.44
2018-05-01T22:28:13.325Z,46.15
2018-05-01T22:30:39.719Z,46.45
2018-05-01T22:33:06.128Z,45.88
2018-05-01T22:35:32.627Z,46.42
2018-05-01T22:37:59.012Z,46.96
2018-05-01T22:40:25.471Z,48.85
2018-05-01T22:42:51.917Z,46.31
2018-05-01T22:45:18.343Z,46.22
2018-05-01T22:47:44.756Z,45.11
2018-05-01T22:50:11.151Z,51.71
2018-05-01T22:52:37.636Z,45.80
2018-05-01T22:55:03.984Z,47.67
2018-05-01T22:57:30.487Z,44.98
2018-05-01T22:59:56.996Z,44.73
2018-05-01T23:02:23.409Z,44.38
